createdAt,value
2022-08-29T00:02:09.687Z,8.20
2022-08-29T00:12:20.370Z,8.77
2022-08-29T00:17:24.380Z,9.52
2022-08-29T00:22:28.479Z,9.27
2022-08-29T00:27:34.631Z,9.43
2022-08-29T00:32:38.823Z,9.77
2022-08-29T00:37:43.655Z,9.00
2022-08-29T00:42:49.656Z,9.52
2022-08-29T00:47:55.972Z,9.32
2022-08-29T00:53:01.178Z,9.25
2022-08-29T00:58:10.635Z,10.57
2022-08-29T01:03:18.103Z,9.30
2022-08-29T01:08:22.062Z,8.52
2022-08-29T01:13:33.032Z,9.52
2022-08-29T01:18:38.504Z,8.30
2022-08-29T01:23:46.351Z,10.45
2022-08-29T01:28:54.107Z,9.18
2022-08-29T01:33:59.970Z,9.15
2022-08-29T01:39:03.927Z,9.85
2022-08-29T01:44:13.439Z,9.40
2022-08-29T01:49:19.339Z,8.63
2022-08-29T01:54:23.638Z,9.05
2022-08-29T01:59:30.496Z,9.45
2022-08-29T02:04:35.001Z,9.48
2022-08-29T02:09:39.062Z,8.77
2022-08-29T02:14:52.033Z,9.35
2022-08-29T02:19:56.098Z,9.50
2022-08-29T02:25:00.114Z,9.48
2022-08-29T02:30:06.668Z,8.90
2022-08-29T02:35:10.684Z,9.02
2022-08-29T02:40:15.375Z,8.55
2022-08-29T02:45:21.142Z,8.18
2022-08-29T02:55:29.623Z,8.60
2022-08-29T03:00:35.990Z,8.55
2022-08-29T03:05:40.264Z,8.00
2022-08-29T03:10:44.688Z,7.75
2022-08-29T03:15:50.205Z,7.60
2022-08-29T03:20:54.557Z,8.93
2022-08-29T03:25:58.563Z,8.48
2022-08-29T03:31:04.046Z,7.90
2022-08-29T03:36:14.630Z,8.32
2022-08-29T03:41:22.616Z,8.13
2022-08-29T03:46:28.676Z,7.47
2022-08-29T03:51:33.387Z,7.57
2022-08-29T03:56:37.510Z,8.27
2022-08-29T04:01:43.043Z,7.82
2022-08-29T04:06:47.060Z,8.45
2022-08-29T04:11:51.078Z,7.47
2022-08-29T04:16:56.583Z,8.00
2022-08-29T04:22:00.730Z,10.20
2022-08-29T04:27:05.030Z,7.75
2022-08-29T04:32:10.396Z,7.88
2022-08-29T04:37:15.065Z,7.32
2022-08-29T04:42:20.440Z,8.32
2022-08-29T04:47:26.048Z,8.80
2022-08-29T04:52:30.171Z,7.47
2022-08-29T04:57:35.615Z,7.38
2022-08-29T05:02:41.425Z,7.65
2022-08-29T05:07:46.494Z,7.32
2022-08-29T05:12:50.703Z,7.63
2022-08-29T05:17:56.400Z,7.15
2022-08-29T05:28:04.843Z,8.18
2022-08-29T05:33:10.178Z,7.50
2022-08-29T05:38:14.776Z,7.80
2022-08-29T05:43:18.891Z,7.72
2022-08-29T05:48:24.272Z,7.53
2022-08-29T05:53:29.010Z,7.85
2022-08-29T05:58:33.067Z,8.53
2022-08-29T06:03:40.279Z,7.65
2022-08-29T06:08:47.027Z,7.25
2022-08-29T06:13:51.239Z,7.13
2022-08-29T06:18:57.215Z,7.57
2022-08-29T06:24:01.192Z,8.15
2022-08-29T06:29:06.623Z,7.72
2022-08-29T06:39:15.824Z,7.90
2022-08-29T06:44:21.471Z,7.18
2022-08-29T06:49:27.828Z,7.40
2022-08-29T06:54:31.939Z,7.80
2022-08-29T06:59:36.847Z,8.18
2022-08-29T07:04:42.240Z,8.02
2022-08-29T07:09:46.255Z,7.53
2022-08-29T07:14:50.367Z,6.97
2022-08-29T07:19:58.768Z,6.78
2022-08-29T07:25:02.859Z,6.13
2022-08-29T07:30:07.886Z,7.27
2022-08-29T07:40:18.381Z,6.75
2022-08-29T07:50:27.639Z,6.30
2022-08-29T07:55:32.934Z,6.03
2022-08-29T08:00:36.900Z,5.97
2022-08-29T08:05:42.436Z,5.80
2022-08-29T08:10:52.035Z,5.90
2022-08-29T08:15:56.692Z,5.85
2022-08-29T08:21:02.087Z,5.97
2022-08-29T08:26:06.275Z,5.85
2022-08-29T08:31:11.807Z,5.82
2022-08-29T08:36:23.259Z,6.20
2022-08-29T08:41:36.415Z,7.65
2022-08-29T08:46:43.316Z,6.18
2022-08-29T08:51:52.372Z,7.57
2022-08-29T08:57:02.188Z,8.05
2022-08-29T09:02:12.706Z,8.07
2022-08-29T09:07:33.309Z,6.47
2022-08-29T09:12:46.218Z,6.82
2022-08-29T09:17:58.622Z,6.47
2022-08-29T09:23:05.682Z,5.45
2022-08-29T09:28:10.557Z,5.88
2022-08-29T09:33:17.003Z,5.45
2022-08-29T09:38:28.190Z,6.32
2022-08-29T09:43:48.199Z,5.82
2022-08-29T09:49:02.375Z,6.07
2022-08-29T09:54:17.299Z,5.80
2022-08-29T09:59:26.294Z,5.80
2022-08-29T10:04:40.474Z,5.95
2022-08-29T10:09:54.966Z,6.22
2022-08-29T10:15:04.455Z,5.35
2022-08-29T10:20:11.804Z,5.60
2022-08-29T10:25:20.989Z,5.68
2022-08-29T10:30:29.643Z,5.57
2022-08-29T10:35:37.963Z,5.70
2022-08-29T10:40:47.641Z,5.60
2022-08-29T10:46:04.890Z,6.10
2022-08-29T10:51:17.828Z,5.07
2022-08-29T10:56:25.753Z,6.80
2022-08-29T11:01:32.549Z,5.20
2022-08-29T11:06:39.080Z,6.20
2022-08-29T11:11:48.169Z,5.18
2022-08-29T11:16:53.713Z,4.53
2022-08-29T11:22:02.516Z,4.35
2022-08-29T11:27:26.735Z,5.07
2022-08-29T11:32:36.538Z,6.53
2022-08-29T11:38:03.847Z,5.80
2022-08-29T11:43:12.616Z,4.82
2022-08-29T11:48:22.230Z,5.00
2022-08-29T11:53:34.129Z,5.35
2022-08-29T11:58:48.726Z,5.80
2022-08-29T12:03:53.894Z,5.20
2022-08-29T12:09:04.903Z,5.10
2022-08-29T12:14:34.253Z,5.43
2022-08-29T12:19:53.336Z,5.07
2022-08-29T12:24:57.815Z,5.45
2022-08-29T12:30:03.264Z,5.88
2022-08-29T12:35:44.727Z,5.38
2022-08-29T12:40:58.736Z,5.80
2022-08-29T12:46:06.839Z,4.95
2022-08-29T12:51:11.517Z,5.18
2022-08-29T12:56:18.627Z,5.22
2022-08-29T13:01:38.060Z,4.78
2022-08-29T13:06:52.627Z,5.63
2022-08-29T13:12:11.725Z,6.40
2022-08-29T13:17:17.923Z,5.07
2022-08-29T13:22:21.750Z,7.25
2022-08-29T13:27:25.690Z,6.25
2022-08-29T13:32:31.153Z,5.65
2022-08-29T13:37:37.157Z,5.75
2022-08-29T13:42:45.812Z,5.10
2022-08-29T13:48:18.459Z,5.25
2022-08-29T13:53:22.393Z,4.50
2022-08-29T13:58:26.924Z,5.65
2022-08-29T14:03:32.404Z,5.05
2022-08-29T14:08:36.359Z,5.28
2022-08-29T14:18:45.383Z,5.53
2022-08-29T14:23:51.503Z,5.55
2022-08-29T14:28:55.547Z,6.03
2022-08-29T14:39:04.569Z,5.85
2022-08-29T14:44:08.463Z,5.25
2022-08-29T14:54:18.179Z,5.60
2022-08-29T15:04:35.851Z,6.00
2022-08-29T15:09:44.075Z,6.07
2022-08-29T15:14:47.969Z,5.50
2022-08-29T15:20:33.979Z,5.60
2022-08-29T15:25:17.873Z,5.82
2022-08-29T15:30:23.978Z,6.10
2022-08-29T15:35:30.163Z,6.28
2022-08-29T15:40:34.479Z,6.15
2022-08-29T15:45:38.383Z,6.32
2022-08-29T15:50:44.192Z,7.03
2022-08-29T15:55:48.068Z,6.07
2022-08-29T16:00:52.004Z,5.50
2022-08-29T16:05:57.238Z,6.17
2022-08-29T16:11:01.213Z,7.15
2022-08-29T16:16:05.324Z,7.67
2022-08-29T16:21:10.728Z,6.47
2022-08-29T16:26:14.814Z,7.38
2022-08-29T16:31:20.389Z,6.27
2022-08-29T16:36:27.155Z,9.13
2022-08-29T16:41:31.000Z,8.95
2022-08-29T16:46:36.256Z,8.88
2022-08-29T16:51:41.586Z,14.73
2022-08-29T16:56:45.499Z,10.95
2022-08-29T17:01:51.459Z,10.50
2022-08-29T17:06:57.248Z,15.75
2022-08-29T17:12:02.380Z,11.40
2022-08-29T17:17:08.195Z,10.90
2022-08-29T17:22:15.961Z,12.27
2022-08-29T17:27:21.606Z,11.00
2022-08-29T17:32:26.088Z,12.00
2022-08-29T17:37:31.655Z,10.57
2022-08-29T17:42:41.014Z,12.32
2022-08-29T17:47:45.032Z,13.20
2022-08-29T17:52:50.406Z,11.82
2022-08-29T17:57:54.334Z,11.18
2022-08-29T18:02:59.133Z,10.83
2022-08-29T18:08:05.175Z,10.80
2022-08-29T18:13:09.037Z,11.38
2022-08-29T18:18:12.983Z,10.27
2022-08-29T18:23:18.474Z,9.73
2022-08-29T18:28:22.414Z,10.15
2022-08-29T18:33:38.940Z,10.00
2022-08-29T18:38:50.344Z,9.27
2022-08-29T18:43:54.223Z,9.88
2022-08-29T18:48:58.353Z,9.15
2022-08-29T18:54:03.681Z,10.15
2022-08-29T18:59:07.514Z,10.40
2022-08-29T19:04:11.537Z,9.68
2022-08-29T19:09:16.855Z,9.95
2022-08-29T19:14:20.682Z,11.43
2022-08-29T19:19:24.684Z,12.88
2022-08-29T19:24:29.972Z,11.48
2022-08-29T19:29:33.868Z,11.70
2022-08-29T19:34:37.754Z,8.82
2022-08-29T19:39:43.020Z,11.27
2022-08-29T19:44:46.900Z,10.43
2022-08-29T19:49:52.146Z,9.02
2022-08-29T19:55:00.264Z,9.40
2022-08-29T20:00:07.707Z,10.45
2022-08-29T20:05:16.359Z,10.90
2022-08-29T20:10:25.106Z,9.00
2022-08-29T20:15:30.902Z,9.52
2022-08-29T20:20:36.586Z,10.38
2022-08-29T20:25:41.930Z,9.40
2022-08-29T20:30:45.887Z,12.38
2022-08-29T20:36:11.725Z,10.20
2022-08-29T20:41:17.307Z,10.05
2022-08-29T20:46:25.195Z,9.88
2022-08-29T20:51:29.111Z,9.60
2022-08-29T20:56:34.539Z,9.65
2022-08-29T21:01:38.722Z,9.68
2022-08-29T21:06:42.676Z,10.35
2022-08-29T21:11:47.920Z,10.52
2022-08-29T21:16:52.368Z,11.05
2022-08-29T21:21:57.006Z,10.35
2022-08-29T21:27:02.560Z,9.43
2022-08-29T21:37:10.202Z,9.60
2022-08-29T21:42:15.730Z,9.43
2022-08-29T21:52:23.139Z,10.63
2022-08-29T21:57:45.911Z,11.68
2022-08-29T22:02:50.135Z,10.32
2022-08-29T22:07:54.087Z,10.15
2022-08-29T22:12:59.677Z,8.98
2022-08-29T22:23:07.542Z,8.30
2022-08-29T22:28:13.188Z,8.30
2022-08-29T22:33:17.133Z,8.70
2022-08-29T22:38:21.755Z,8.88
2022-08-29T22:43:27.030Z,8.38
2022-08-29T22:48:30.857Z,8.57
2022-08-29T22:53:34.691Z,9.75
2022-08-29T22:58:39.971Z,9.05
2022-08-29T23:03:43.847Z,8.13
2022-08-29T23:08:47.755Z,9.07
2022-08-29T23:13:54.684Z,9.18
2022-08-29T23:18:58.535Z,8.75
2022-08-29T23:24:02.445Z,9.13
2022-08-29T23:29:07.903Z,8.45
2022-08-29T23:34:11.760Z,8.32
2022-08-29T23:39:15.696Z,9.20
2022-08-29T23:44:20.986Z,8.02
2022-08-29T23:49:25.297Z,8.87
2022-08-29T23:54:31.408Z,8.23
2022-08-29T23:59:54.257Z,8.93
